Time;durP1;ratioP1;P1;durP2;ratioP2;P2;SDS_P1;SDS_P2;PMS_P1;PMS_P2;Temp;Humidity;BMP_temperature;BMP_pressure;BME280_temperature;BME280_humidity;BME280_pressure;Samples;Min_cycle;Max_cycle;Signal;HPM_P1;HPM_P2
2022/06/24 02:48:09;;;;;;;3.50;0.20;;;19.50;98.80;;;;;;5040886;23;88465;-75
2022/06/24 02:50:42;;;;;;;1.60;0.30;;;19.50;99.10;;;;;;4892755;28;87237;-75
2022/06/24 02:53:09;;;;;;;3.35;0.40;;;19.50;99.20;;;;;;4895711;28;87926;-74
2022/06/24 02:55:36;;;;;;;3.10;0.40;;;19.60;99.00;;;;;;4898867;28;87008;-74
2022/06/24 02:58:03;;;;;;;3.05;0.52;;;19.60;99.00;;;;;;4899706;28;86790;-74
2022/06/24 03:00:28;;;;;;;4.13;0.70;;;19.50;98.90;;;;;;4896125;28;87910;-74
2022/06/24 03:02:54;;;;;;;2.83;0.50;;;19.50;98.30;;;;;;4899081;28;87856;-73
2022/06/24 03:05:20;;;;;;;2.15;0.32;;;19.50;97.90;;;;;;4897751;28;87378;-74
2022/06/24 03:07:45;;;;;;;3.55;1.15;;;19.50;98.00;;;;;;4899847;28;86959;-76
2022/06/24 03:10:11;;;;;;;3.38;0.28;;;19.50;97.60;;;;;;4898622;28;87828;-75
2022/06/24 03:12:37;;;;;;;6.90;0.40;;;19.50;97.60;;;;;;4893890;28;87936;-74
2022/06/24 03:15:03;;;;;;;3.67;0.55;;;19.50;98.00;;;;;;4896358;28;87186;-74
2022/06/24 03:17:29;;;;;;;1.13;0.22;;;19.60;97.50;;;;;;4899164;28;86585;-75
2022/06/24 03:19:55;;;;;;;3.70;0.60;;;19.70;96.90;;;;;;4897511;28;87709;-75
2022/06/24 03:22:20;;;;;;;2.10;0.30;;;19.80;96.80;;;;;;4898857;28;86896;-75
2022/06/24 03:24:46;;;;;;;2.78;0.50;;;19.80;97.00;;;;;;4897451;28;88366;-75
2022/06/24 03:27:12;;;;;;;1.58;0.50;;;19.70;96.60;;;;;;4898142;28;87129;-74
2022/06/24 03:29:37;;;;;;;4.30;0.22;;;19.80;97.30;;;;;;4898248;28;87214;-75
2022/06/24 03:32:04;;;;;;;2.20;0.30;;;19.90;97.40;;;;;;4897177;28;88285;-73
2022/06/24 03:34:29;;;;;;;2.80;0.55;;;20.00;97.40;;;;;;4899366;28;86961;-74
2022/06/24 03:36:55;;;;;;;1.67;0.40;;;19.90;97.80;;;;;;4901986;28;86995;-74
2022/06/24 03:39:21;;;;;;;3.60;0.20;;;19.90;97.70;;;;;;4899645;28;87148;-74
2022/06/24 03:41:46;;;;;;;6.55;0.30;;;20.00;98.10;;;;;;4901805;28;86969;-74
2022/06/24 03:44:12;;;;;;;3.63;0.35;;;19.80;96.40;;;;;;4901730;28;87498;-74
2022/06/24 03:46:38;;;;;;;2.17;0.45;;;19.80;95.40;;;;;;4899306;28;87219;-73
2022/06/24 03:49:03;;;;;;;2.85;0.60;;;19.70;96.30;;;;;;4899362;28;87978;-74
2022/06/24 03:51:29;;;;;;;2.85;0.40;;;19.60;96.70;;;;;;4900445;28;88845;-73
2022/06/24 03:53:55;;;;;;;3.55;0.40;;;19.70;96.50;;;;;;4902090;28;87072;-73
2022/06/24 03:56:20;;;;;;;3.40;0.63;;;19.80;95.70;;;;;;4902078;28;86192;-73
2022/06/24 03:58:46;;;;;;;3.15;0.43;;;19.80;95.60;;;;;;4900733;28;87633;-74
2022/06/24 04:01:12;;;;;;;1.58;0.20;;;19.80;95.90;;;;;;4900852;28;87918;-73
2022/06/24 04:03:37;;;;;;;4.30;0.20;;;19.70;96.10;;;;;;4893801;28;87357;-73
2022/06/24 04:06:03;;;;;;;2.35;0.30;;;19.90;96.10;;;;;;4897681;28;86047;-74
2022/06/24 04:08:29;;;;;;;1.85;0.35;;;20.00;95.10;;;;;;4900489;28;87026;-74
2022/06/24 04:10:54;;;;;;;4.30;0.30;;;20.00;95.00;;;;;;4898850;28;88558;-74
2022/06/24 04:13:20;;;;;;;2.83;0.30;;;20.10;94.70;;;;;;4898553;28;88010;-74
2022/06/24 04:15:49;;;;;;;2.30;0.40;;;20.10;94.50;;;;;;4901244;28;86671;-74
2022/06/24 04:18:15;;;;;;;2.97;0.40;;;20.10;94.70;;;;;;4895739;28;87059;-74
2022/06/24 04:20:41;;;;;;;4.32;0.38;;;20.00;95.50;;;;;;4899856;28;87142;-74
2022/06/24 04:23:06;;;;;;;3.03;0.20;;;20.00;95.90;;;;;;4900292;28;86903;-75
2022/06/24 04:25:33;;;;;;;4.30;0.30;;;20.00;96.30;;;;;;4900617;28;87005;-75
2022/06/24 04:27:59;;;;;;;2.08;0.40;;;19.80;97.30;;;;;;4898596;28;87937;-75
2022/06/24 04:30:25;;;;;;;3.30;0.47;;;19.60;98.80;;;;;;4898017;28;86340;-73
2022/06/24 04:32:51;;;;;;;2.65;0.75;;;19.50;99.90;;;;;;4899895;28;86970;-74
2022/06/24 04:35:16;;;;;;;3.53;0.40;;;19.40;99.90;;;;;;4899635;28;87090;-74
2022/06/24 04:37:42;;;;;;;4.03;0.60;;;19.50;99.90;;;;;;4899610;28;87935;-74
2022/06/24 04:40:10;;;;;;;2.47;0.52;;;19.40;99.90;;;;;;4899034;28;88293;-74
2022/06/24 04:42:36;;;;;;;4.75;0.70;;;19.40;99.90;;;;;;4900046;28;87348;-75
2022/06/24 04:45:03;;;;;;;2.50;0.65;;;19.50;99.90;;;;;;4900527;28;86929;-74
2022/06/24 04:47:29;;;;;;;2.55;0.98;;;19.50;99.90;;;;;;4898464;28;87266;-74
2022/06/24 04:49:55;;;;;;;5.78;0.60;;;19.60;99.90;;;;;;4897512;28;87695;-74
2022/06/24 04:52:21;;;;;;;3.17;0.80;;;19.50;99.90;;;;;;4897983;28;86979;-74
2022/06/24 04:54:47;;;;;;;3.72;0.30;;;19.50;99.90;;;;;;4899767;28;86309;-75
2022/06/24 04:57:14;;;;;;;2.05;0.20;;;19.70;99.40;;;;;;4897949;28;88147;-74
2022/06/24 04:59:40;;;;;;;5.90;0.80;;;19.80;98.60;;;;;;4888651;28;87332;-75
2022/06/24 05:02:06;;;;;;;3.22;0.32;;;19.90;98.00;;;;;;4893118;28;87982;-76
2022/06/24 05:04:32;;;;;;;2.60;0.40;;;19.80;97.60;;;;;;4895853;28;86946;-74
2022/06/24 05:06:57;;;;;;;5.35;0.77;;;19.80;98.30;;;;;;4902147;28;87434;-75
2022/06/24 05:09:23;;;;;;;3.00;0.60;;;19.70;99.40;;;;;;4898891;28;86925;-75
2022/06/24 05:11:50;;;;;;;4.40;0.55;;;19.60;99.50;;;;;;4900051;28;86845;-76
2022/06/24 05:14:17;;;;;;;3.80;0.82;;;19.60;99.30;;;;;;4901235;28;86993;-75
2022/06/24 05:16:43;;;;;;;3.42;0.55;;;19.60;99.70;;;;;;4898395;28;89797;-75
2022/06/24 05:19:09;;;;;;;2.65;0.60;;;19.80;99.10;;;;;;4901081;28;86229;-76
2022/06/24 05:21:35;;;;;;;7.05;0.47;;;19.80;98.70;;;;;;4900332;28;86917;-76
2022/06/24 05:24:01;;;;;;;2.85;0.28;;;19.90;98.10;;;;;;4901343;28;88951;-75
2022/06/24 05:26:27;;;;;;;1.85;0.57;;;20.00;97.90;;;;;;4899129;28;89258;-76
2022/06/24 05:28:53;;;;;;;5.60;0.32;;;20.10;97.80;;;;;;4900079;28;87919;-75
2022/06/24 05:31:18;;;;;;;3.58;0.30;;;20.30;97.30;;;;;;4899427;28;87506;-76
2022/06/24 05:33:44;;;;;;;4.47;0.47;;;20.40;95.90;;;;;;4899344;28;86982;-75
2022/06/24 05:36:10;;;;;;;6.43;0.40;;;20.50;95.60;;;;;;4895997;28;86999;-75
2022/06/24 05:38:36;;;;;;;3.58;0.57;;;20.60;95.70;;;;;;4891290;28;87740;-75
2022/06/24 05:41:03;;;;;;;4.47;0.43;;;20.60;95.80;;;;;;4900340;28;86988;-76
2022/06/24 05:43:29;;;;;;;4.22;0.43;;;20.50;96.30;;;;;;4900269;28;86268;-75
2022/06/24 05:45:55;;;;;;;3.78;0.98;;;20.60;95.90;;;;;;4900169;28;86811;-74
2022/06/24 05:48:21;;;;;;;4.53;0.40;;;20.60;95.70;;;;;;4898407;28;86925;-76
2022/06/24 05:50:47;;;;;;;7.57;0.63;;;20.70;95.60;;;;;;4899217;28;87910;-75
2022/06/24 05:55:59;;;;;;;4.13;0.52;;;21.00;94.40;;;;;;4899685;28;86961;-76
2022/06/24 05:58:29;;;;;;;5.68;0.45;;;21.20;94.40;;;;;;4901305;28;87493;-76
2022/06/24 06:00:56;;;;;;;4.10;0.70;;;21.30;93.50;;;;;;4897986;28;86985;-76
2022/06/24 06:03:25;;;;;;;2.13;0.45;;;21.50;92.50;;;;;;4899192;28;86915;-75
2022/06/24 06:05:51;;;;;;;4.72;1.08;;;21.40;92.50;;;;;;4899677;28;86959;-75
2022/06/24 06:08:18;;;;;;;5.72;0.80;;;21.50;92.30;;;;;;4900539;28;86351;-76
2022/06/24 06:10:44;;;;;;;3.65;0.90;;;21.70;91.10;;;;;;4897301;28;86969;-64
2022/06/24 06:13:12;;;;;;;6.68;0.73;;;21.80;91.10;;;;;;4899890;28;87113;-61
2022/06/24 06:15:38;;;;;;;6.43;0.73;;;21.70;91.30;;;;;;4884859;28;89807;-58
2022/06/24 06:18:05;;;;;;;4.20;1.02;;;21.60;91.10;;;;;;4896923;28;86960;-60
2022/06/24 06:20:30;;;;;;;5.00;0.85;;;21.60;91.20;;;;;;4896012;28;87060;-57
2022/06/24 06:22:56;;;;;;;3.58;1.02;;;21.70;91.40;;;;;;4898780;28;86994;-61
2022/06/24 06:25:22;;;;;;;3.75;0.70;;;21.80;91.20;;;;;;4896963;28;86940;-58
2022/06/24 06:27:49;;;;;;;5.47;0.98;;;21.80;91.30;;;;;;4896689;28;88019;-60
2022/06/24 06:30:15;;;;;;;3.70;0.88;;;21.90;91.00;;;;;;4894421;28;86647;-63
2022/06/24 06:32:41;;;;;;;5.05;0.95;;;21.90;91.40;;;;;;4896207;28;86343;-61
2022/06/24 06:35:07;;;;;;;4.40;0.90;;;22.00;91.50;;;;;;4896755;28;87818;-59
2022/06/24 06:37:33;;;;;;;7.57;0.90;;;22.00;90.80;;;;;;4890863;28;86887;-61
2022/06/24 06:39:59;;;;;;;4.22;0.90;;;22.10;90.40;;;;;;4897271;28;88028;-62
2022/06/24 06:42:25;;;;;;;3.78;0.90;;;21.90;91.40;;;;;;4897884;28;87731;-62
2022/06/24 06:44:51;;;;;;;5.68;0.82;;;21.90;91.00;;;;;;4897565;28;88269;-62
2022/06/24 06:47:16;;;;;;;7.35;0.77;;;22.00;90.60;;;;;;4898220;28;87830;-59
2022/06/24 06:49:42;;;;;;;5.88;0.77;;;21.80;91.00;;;;;;4898025;28;87020;-61
2022/06/24 06:52:08;;;;;;;7.35;0.93;;;22.00;90.60;;;;;;4897992;28;87005;-60
2022/06/24 06:54:34;;;;;;;5.55;1.00;;;21.90;90.60;;;;;;4898071;28;87065;-58
2022/06/24 06:56:59;;;;;;;6.80;0.90;;;22.10;89.80;;;;;;4897884;28;86483;-58
2022/06/24 06:59:25;;;;;;;5.63;0.75;;;22.00;89.30;;;;;;4897879;28;87207;-57
2022/06/24 07:01:51;;;;;;;2.13;0.40;;;22.20;89.70;;;;;;4897486;28;87538;-60
2022/06/24 07:04:17;;;;;;;2.35;0.50;;;22.40;88.20;;;;;;4897614;28;88602;-62
2022/06/24 07:06:43;;;;;;;5.43;1.05;;;22.50;86.60;;;;;;4897570;28;89255;-62
2022/06/24 07:09:08;;;;;;;5.63;1.05;;;23.00;85.50;;;;;;4897777;28;86967;-64
2022/06/24 07:11:34;;;;;;;4.10;0.93;;;23.20;84.90;;;;;;4899224;28;87345;-60
2022/06/24 07:14:00;;;;;;;8.05;1.20;;;23.60;82.90;;;;;;4900437;28;87948;-62
2022/06/24 07:16:26;;;;;;;7.07;1.05;;;24.00;80.50;;;;;;4899492;28;87086;-62
2022/06/24 07:18:52;;;;;;;5.22;1.10;;;23.70;80.70;;;;;;4899790;28;87274;-60
2022/06/24 07:21:17;;;;;;;5.43;1.23;;;23.90;81.70;;;;;;4899783;28;86868;-63
2022/06/24 07:23:43;;;;;;;3.42;0.68;;;24.90;76.70;;;;;;4893054;28;87896;-56
2022/06/24 07:26:09;;;;;;;4.90;1.13;;;26.10;72.00;;;;;;4900593;28;88306;-60
2022/06/24 07:28:35;;;;;;;7.50;1.50;;;27.70;68.50;;;;;;4900523;28;88041;-75
2022/06/24 07:31:10;;;;;;;6.35;1.80;;;29.60;63.50;;;;;;4897451;28;86824;-75
2022/06/24 07:33:36;;;;;;;;;;;30.90;57.00;;;;;;4900454;28;88085;-75
2022/06/24 07:36:02;;;;;;;7.57;0.98;;;30.60;58.10;;;;;;4895262;28;87150;-76
2022/06/24 07:38:28;;;;;;;5.47;2.10;;;30.50;58.00;;;;;;4894441;28;87245;-75
2022/06/24 07:40:55;;;;;;;5.45;1.70;;;29.80;57.00;;;;;;4892603;28;87193;-75
2022/06/24 07:43:20;;;;;;;3.63;1.20;;;29.50;58.80;;;;;;4894790;28;88860;-75
2022/06/24 07:45:46;;;;;;;3.90;1.33;;;29.30;59.20;;;;;;4895376;28;87215;-75
2022/06/24 07:48:12;;;;;;;4.85;0.98;;;28.80;60.10;;;;;;4896147;28;86428;-75
2022/06/24 07:50:38;;;;;;;5.22;1.83;;;28.70;61.30;;;;;;4893756;28;87030;-75
2022/06/24 07:53:04;;;;;;;4.53;1.67;;;28.50;62.30;;;;;;4897668;28;88176;-76
2022/06/24 07:58:13;;;;;;;3.75;1.42;;;27.90;62.70;;;;;;4893911;28;87311;-60
2022/06/24 08:00:39;;;;;;;4.82;1.60;;;27.40;64.60;;;;;;4897344;28;87475;-58
2022/06/24 08:03:05;;;;;;;5.60;1.45;;;26.50;67.20;;;;;;4894884;28;88237;-60
2022/06/24 08:05:31;;;;;;;7.28;1.60;;;26.10;68.30;;;;;;4890652;28;88232;-58
2022/06/24 08:07:57;;;;;;;5.70;1.63;;;26.20;68.20;;;;;;4895278;28;88366;-57
2022/06/24 08:10:22;;;;;;;4.70;1.40;;;26.30;68.50;;;;;;4898195;28;86456;-54
2022/06/24 08:12:48;;;;;;;6.25;1.25;;;25.80;69.20;;;;;;4899979;28;87214;-58
2022/06/24 08:15:16;;;;;;;6.82;1.77;;;25.80;69.00;;;;;;4900130;28;88170;-57
2022/06/24 08:17:42;;;;;;;5.82;1.15;;;25.30;67.20;;;;;;4899241;28;87986;-58
2022/06/24 08:20:08;;;;;;;6.40;1.42;;;25.10;69.70;;;;;;4895530;28;87000;-57
2022/06/24 08:22:34;;;;;;;5.88;0.85;;;24.70;71.30;;;;;;4897888;28;88351;-58
2022/06/24 08:25:01;;;;;;;7.15;2.22;;;24.60;71.90;;;;;;4898097;28;86915;-72
2022/06/24 08:27:27;;;;;;;4.80;1.13;;;24.60;72.80;;;;;;4895197;28;87186;-72
2022/06/24 08:29:52;;;;;;;6.35;1.27;;;24.70;73.40;;;;;;4899286;28;86943;-74
2022/06/24 08:32:18;;;;;;;4.72;1.38;;;24.40;72.50;;;;;;4898696;28;87004;-72
2022/06/24 08:34:44;;;;;;;7.47;1.30;;;24.20;74.40;;;;;;4899052;28;87469;-72
2022/06/24 08:37:10;;;;;;;9.27;1.55;;;24.30;76.70;;;;;;4897289;28;87083;-72
2022/06/24 08:39:36;;;;;;;8.63;1.55;;;24.40;77.80;;;;;;4898643;28;87123;-73
2022/06/24 08:42:04;;;;;;;7.97;1.88;;;24.20;75.50;;;;;;4893570;28;88839;-72
2022/06/24 08:44:30;;;;;;;3.70;1.17;;;24.30;76.80;;;;;;4898494;28;88483;-72
2022/06/24 08:46:55;;;;;;;7.13;1.23;;;24.70;74.40;;;;;;4902579;28;87158;-72
2022/06/24 08:49:21;;;;;;;5.95;1.63;;;25.10;76.30;;;;;;4899077;28;86887;-72
2022/06/24 08:51:49;;;;;;;5.80;1.02;;;25.00;72.40;;;;;;4899130;28;87020;-73
2022/06/24 08:54:18;;;;;;;9.65;1.58;;;24.50;72.40;;;;;;4895255;28;86934;-72
2022/06/24 08:56:44;;;;;;;5.10;1.17;;;24.10;73.10;;;;;;4898387;28;87130;-73
2022/06/24 08:59:10;;;;;;;4.88;1.10;;;24.40;75.10;;;;;;4897646;28;86399;-72
2022/06/24 09:01:40;;;;;;;4.43;1.17;;;24.70;76.40;;;;;;4898895;28;87226;-73
2022/06/24 09:04:07;;;;;;;4.25;0.75;;;24.80;76.10;;;;;;4898411;28;87071;-72
2022/06/24 09:06:38;;;;;;;7.03;1.20;;;24.80;77.20;;;;;;4898647;28;87840;-72
2022/06/24 09:09:04;;;;;;;6.45;1.55;;;24.80;79.40;;;;;;4896769;28;87587;-72
2022/06/24 09:11:41;;;;;;;4.07;0.95;;;25.00;78.90;;;;;;4898466;28;87663;-72
2022/06/24 09:14:08;;;;;;;6.47;1.42;;;25.10;77.70;;;;;;4894418;28;86991;-73
2022/06/24 09:16:37;;;;;;;6.30;1.30;;;24.90;76.80;;;;;;4897754;28;87124;-73
2022/06/24 09:19:05;;;;;;;6.40;1.42;;;24.80;78.60;;;;;;4898434;28;87516;-72
2022/06/24 09:21:38;;;;;;;6.85;1.20;;;24.60;78.70;;;;;;4897316;28;88497;-73
2022/06/24 09:24:04;;;;;;;8.35;1.42;;;24.40;80.50;;;;;;4897483;28;86352;-74
2022/06/24 09:26:31;;;;;;;3.90;1.00;;;24.50;80.70;;;;;;4896345;28;88032;-73
2022/06/24 09:28:57;;;;;;;3.42;1.08;;;24.50;80.70;;;;;;4897792;28;86966;-73
2022/06/24 09:31:28;;;;;;;10.00;1.20;;;24.40;81.30;;;;;;4897158;28;88654;-72
2022/06/24 09:33:55;;;;;;;6.30;1.85;;;24.40;83.10;;;;;;4897404;28;87945;-72
2022/06/24 09:36:25;;;;;;;9.95;1.55;;;24.10;81.10;;;;;;4896688;28;88487;-73
2022/06/24 09:38:55;;;;;;;4.65;1.20;;;23.90;81.80;;;;;;4897996;28;87419;-73
2022/06/24 09:41:21;;;;;;;6.28;1.08;;;23.90;82.70;;;;;;4896464;28;86927;-73
2022/06/24 09:43:47;;;;;;;5.00;0.98;;;23.90;84.20;;;;;;4897279;28;88755;-72
2022/06/24 09:46:19;;;;;;;8.57;1.27;;;23.90;84.90;;;;;;4890992;28;87560;-73
2022/06/24 09:48:45;;;;;;;5.75;1.42;;;23.80;84.90;;;;;;4895080;28;86506;-72
2022/06/24 09:51:11;;;;;;;4.75;1.15;;;23.70;84.90;;;;;;4898271;28;87595;-72
2022/06/24 09:53:41;;;;;;;5.35;1.13;;;23.70;86.10;;;;;;4898228;28;87254;-72
2022/06/24 09:56:09;;;;;;;5.75;1.35;;;23.70;86.20;;;;;;4897461;28;87635;-72
2022/06/24 09:58:36;;;;;;;6.65;1.90;;;23.60;87.20;;;;;;4896861;28;87731;-74
2022/06/24 10:01:02;;;;;;;7.07;1.20;;;23.50;88.60;;;;;;4897015;28;88453;-72
2022/06/24 10:03:28;;;;;;;9.10;1.13;;;23.30;90.10;;;;;;4895369;28;87464;-72
2022/06/24 10:06:01;;;;;;;7.47;1.33;;;23.30;90.20;;;;;;4890799;28;87005;-73
2022/06/24 10:08:32;;;;;;;7.82;1.38;;;23.20;90.50;;;;;;4895028;28;87053;-72
2022/06/24 10:10:59;;;;;;;7.65;1.80;;;23.20;90.50;;;;;;4891330;28;88949;-72
2022/06/24 10:13:26;;;;;;;7.72;1.90;;;23.10;91.50;;;;;;4897002;28;86245;-72
2022/06/24 10:15:55;;;;;;;7.97;1.73;;;22.90;92.40;;;;;;4897579;28;87098;-72
2022/06/24 10:18:28;;;;;;;11.77;1.52;;;22.90;92.90;;;;;;4897779;28;86884;-72
2022/06/24 10:20:59;;;;;;;5.82;1.40;;;22.70;93.60;;;;;;4897136;28;90976;-72
2022/06/24 10:23:39;;;;;;;8.35;1.60;;;22.70;94.00;;;;;;4892701;28;87774;-72
2022/06/24 10:26:12;;;;;;;7.07;1.70;;;22.60;93.70;;;;;;4895195;28;87036;-58
2022/06/24 10:28:59;;;;;;;10.85;1.83;;;22.50;93.80;;;;;;4895595;28;87148;-52
2022/06/24 10:31:44;;;;;;;7.68;1.95;;;22.40;94.40;;;;;;4891649;28;89011;-56
2022/06/24 10:34:22;;;;;;;16.35;2.65;;;22.20;94.50;;;;;;4888010;28;88522;-56
2022/06/24 10:36:52;;;;;;;8.10;1.70;;;22.00;95.40;;;;;;4892849;28;87039;-57
2022/06/24 10:39:24;;;;;;;8.35;1.85;;;21.80;94.70;;;;;;4894054;28;86442;-56
2022/06/24 10:41:59;;;;;;;13.35;2.10;;;21.80;95.90;;;;;;4892327;28;86955;-53
2022/06/24 10:44:26;;;;;;;;;;;22.10;96.30;;;;;;4894730;28;88685;-54
2022/06/24 10:47:04;;;;;;;8.38;1.20;;;22.50;94.40;;;;;;4895538;28;88125;-53
2022/06/24 10:49:52;;;;;;;8.13;1.50;;;22.80;92.80;;;;;;4890071;28;87001;-57
2022/06/24 10:52:46;;;;;;;5.35;1.48;;;23.30;92.50;;;;;;4889962;28;88636;-58
2022/06/24 10:55:20;;;;;;;6.07;1.58;;;23.50;90.10;;;;;;4893171;28;91428;-59
2022/06/24 10:57:51;;;;;;;8.95;1.15;;;23.60;91.40;;;;;;4889979;28;87589;-74
2022/06/24 11:00:22;;;;;;;6.57;1.83;;;23.50;92.10;;;;;;4890596;28;87317;-72
2022/06/24 11:02:51;;;;;;;7.55;1.17;;;23.50;92.70;;;;;;4896227;28;88259;-74
2022/06/24 11:05:25;;;;;;;;;;;23.70;92.80;;;;;;4888695;28;86815;-69
2022/06/24 11:07:51;;;;;;;6.65;1.40;;;23.70;92.90;;;;;;4893249;28;87337;-71
2022/06/24 11:10:22;;;;;;;7.00;1.42;;;24.00;90.80;;;;;;4889506;28;87121;-73
2022/06/24 11:12:57;;;;;;;8.00;1.10;;;24.20;85.00;;;;;;4894733;28;88360;-73
2022/06/24 11:15:38;;;;;;;5.75;0.85;;;24.10;87.80;;;;;;4891868;28;88782;-74
2022/06/24 11:18:17;;;;;;;9.57;1.30;;;24.20;82.90;;;;;;4882953;28;87106;-72
2022/06/24 11:20:47;;;;;;;7.07;1.40;;;24.20;84.70;;;;;;4889882;28;87280;-73
2022/06/24 11:23:15;;;;;;;11.10;1.88;;;23.90;86.00;;;;;;4889171;28;88546;-72
2022/06/24 11:25:48;;;;;;;8.57;1.30;;;22.90;91.60;;;;;;4891279;28;87413;-75
2022/06/24 11:28:18;;;;;;;8.43;1.40;;;22.80;92.00;;;;;;4888123;28;87120;-74
2022/06/24 11:30:43;;;;;;;8.55;1.40;;;23.00;92.60;;;;;;4893386;28;86581;-71
2022/06/24 11:33:09;;;;;;;9.38;1.75;;;23.00;93.60;;;;;;4895264;28;87168;-71
2022/06/24 11:35:35;;;;;;;12.48;2.05;;;23.20;91.70;;;;;;4892934;28;87738;-73
2022/06/24 11:38:05;;;;;;;5.90;1.58;;;23.30;91.10;;;;;;4898229;28;88400;-73
2022/06/24 11:40:32;;;;;;;6.78;1.98;;;23.30;92.00;;;;;;4895548;28;87161;-73
2022/06/24 11:43:12;;;;;;;10.00;2.53;;;23.20;92.00;;;;;;4894891;28;87786;-71
2022/06/24 11:45:38;;;;;;;7.38;2.00;;;23.00;92.70;;;;;;4893305;28;87890;-73
2022/06/24 11:48:05;;;;;;;9.20;2.00;;;22.90;93.30;;;;;;4892594;28;86940;-73
2022/06/24 11:50:33;;;;;;;7.53;1.92;;;22.70;93.90;;;;;;4894617;28;87149;-72
2022/06/24 11:53:00;;;;;;;9.10;2.38;;;22.80;95.30;;;;;;4893403;28;87117;-72
2022/06/24 11:55:29;;;;;;;6.25;1.90;;;22.80;94.40;;;;;;4895022;28;87426;-72
2022/06/24 11:57:57;;;;;;;7.25;2.30;;;23.00;94.00;;;;;;4895456;28;87062;-71
2022/06/24 12:00:24;;;;;;;11.15;2.22;;;22.90;93.10;;;;;;4892436;28;88197;-72
2022/06/24 12:02:52;;;;;;;7.78;2.28;;;23.10;93.20;;;;;;4896110;28;88140;-73
2022/06/24 12:05:19;;;;;;;9.10;1.77;;;23.30;93.60;;;;;;4894805;28;89433;-72
2022/06/24 12:07:46;;;;;;;7.68;2.28;;;23.00;92.90;;;;;;4897197;28;88018;-72
2022/06/24 12:10:12;;;;;;;8.98;2.28;;;23.00;93.50;;;;;;4896512;28;86824;-73
2022/06/24 12:12:56;;;;;;;10.32;2.28;;;22.90;92.60;;;;;;4898787;28;86939;-72
2022/06/24 12:15:43;;;;;;;7.05;2.53;;;22.80;93.60;;;;;;4898438;28;87052;-72
2022/06/24 12:18:13;;;;;;;9.88;2.33;;;22.60;93.70;;;;;;4897957;28;87220;-73
2022/06/24 12:20:39;;;;;;;10.73;1.80;;;23.10;93.10;;;;;;4894585;28;86357;-73
2022/06/24 12:23:18;;;;;;;10.15;2.47;;;23.20;92.60;;;;;;4894651;28;87218;-72
2022/06/24 12:25:49;;;;;;;7.93;2.13;;;22.90;93.30;;;;;;4895621;28;88029;-72
2022/06/24 12:28:20;;;;;;;6.32;1.65;;;23.10;93.40;;;;;;4894291;28;88127;-71
2022/06/24 12:31:01;;;;;;;6.32;1.83;;;23.30;92.90;;;;;;4894465;28;87110;-73
2022/06/24 12:33:29;;;;;;;7.07;1.77;;;23.40;92.40;;;;;;4891969;28;87579;-71
2022/06/24 12:36:11;;;;;;;5.85;1.45;;;23.60;91.30;;;;;;4894619;28;87475;-73
2022/06/24 12:38:41;;;;;;;6.80;1.95;;;24.10;90.90;;;;;;4892167;28;86955;-71
2022/06/24 12:41:09;;;;;;;8.73;1.17;;;24.30;86.80;;;;;;4898084;28;86687;-72
2022/06/24 12:43:35;;;;;;;7.55;2.03;;;24.30;88.80;;;;;;4892825;28;87277;-71
2022/06/24 12:46:04;;;;;;;9.43;2.05;;;24.40;86.20;;;;;;4890444;28;87410;-72
2022/06/24 12:51:14;;;;;;;9.73;1.67;;;24.40;85.30;;;;;;4892593;28;87007;-73
2022/06/24 12:53:49;;;;;;;11.23;2.22;;;24.20;87.80;;;;;;4896785;28;88799;-72
2022/06/24 12:56:15;;;;;;;7.90;1.98;;;23.90;87.60;;;;;;4897532;28;87925;-73
2022/06/24 12:58:40;;;;;;;5.40;1.98;;;24.10;83.90;;;;;;4898414;28;87072;-71
2022/06/24 13:01:06;;;;;;;6.95;2.08;;;23.90;85.50;;;;;;4899084;28;87169;-71
2022/06/24 13:03:32;;;;;;;5.75;1.83;;;24.80;83.90;;;;;;4897993;28;87485;-73
2022/06/24 13:05:57;;;;;;;7.32;1.73;;;25.30;81.10;;;;;;4898462;28;86824;-74
2022/06/24 13:08:23;;;;;;;7.30;1.63;;;24.50;80.20;;;;;;4898114;28;86731;-73
2022/06/24 13:10:49;;;;;;;4.32;1.38;;;24.30;78.20;;;;;;4897378;28;86203;-73
2022/06/24 13:13:15;;;;;;;6.45;2.10;;;24.90;76.10;;;;;;4898363;28;87174;-72
2022/06/24 13:15:40;;;;;;;3.80;1.15;;;25.60;71.70;;;;;;4896490;28;87099;-70
2022/06/24 13:18:06;;;;;;;5.75;1.90;;;25.80;69.30;;;;;;4898452;28;88086;-72
2022/06/24 13:20:32;;;;;;;5.38;0.70;;;26.00;67.90;;;;;;4900944;28;88042;-72
2022/06/24 13:22:59;;;;;;;7.30;1.35;;;25.70;69.50;;;;;;4897087;28;87084;-72
2022/06/24 13:25:25;;;;;;;5.05;1.38;;;25.50;67.90;;;;;;4886771;28;87445;-71
2022/06/24 13:27:51;;;;;;;7.47;1.45;;;25.40;66.40;;;;;;4892641;28;87046;-74
2022/06/24 13:30:17;;;;;;;6.82;1.48;;;24.50;71.80;;;;;;4892783;28;87145;-73
2022/06/24 13:32:42;;;;;;;4.88;1.20;;;24.80;71.70;;;;;;4897686;28;87785;-73
2022/06/24 13:35:09;;;;;;;4.13;0.85;;;25.10;70.00;;;;;;4896494;28;87316;-72
2022/06/24 13:37:34;;;;;;;5.85;1.33;;;25.10;66.60;;;;;;4893234;28;87446;-74
2022/06/24 13:40:00;;;;;;;6.25;1.33;;;25.10;69.60;;;;;;4895369;28;87314;-73
2022/06/24 13:42:29;;;;;;;5.28;1.27;;;25.10;69.30;;;;;;4892850;28;88728;-74
2022/06/24 13:44:55;;;;;;;3.60;1.02;;;25.20;70.40;;;;;;4893673;28;87156;-74
2022/06/24 13:47:20;;;;;;;3.72;0.68;;;25.30;68.40;;;;;;4891709;28;87045;-73
2022/06/24 13:49:46;;;;;;;4.38;1.25;;;25.30;69.10;;;;;;4892482;28;87229;-74
2022/06/24 13:52:12;;;;;;;4.03;1.45;;;25.30;69.40;;;;;;4888469;28;86827;-73
2022/06/24 13:54:38;;;;;;;7.15;1.30;;;25.20;70.20;;;;;;4892673;28;88467;-73
2022/06/24 13:57:04;;;;;;;5.45;1.42;;;25.10;70.90;;;;;;4894387;28;86732;-71
2022/06/24 13:59:30;;;;;;;6.38;1.25;;;25.10;73.60;;;;;;4892083;28;86305;-72
2022/06/24 14:01:56;;;;;;;4.75;0.77;;;25.10;73.70;;;;;;4890969;28;87188;-74
2022/06/24 14:04:21;;;;;;;7.55;1.10;;;25.00;72.90;;;;;;4893278;28;87489;-71
2022/06/24 14:06:47;;;;;;;5.18;0.95;;;24.60;72.90;;;;;;4892588;28;88692;-72
2022/06/24 14:09:13;;;;;;;5.18;1.70;;;24.50;73.00;;;;;;4888748;28;87700;-73
2022/06/24 14:11:39;;;;;;;4.22;1.20;;;24.40;73.60;;;;;;4893089;28;87247;-72
2022/06/24 14:14:04;;;;;;;4.05;0.98;;;24.30;73.90;;;;;;4893376;28;87235;-72
2022/06/24 14:16:30;;;;;;;2.30;0.50;;;24.40;73.60;;;;;;4896313;28;86654;-74
2022/06/24 14:18:58;;;;;;;3.28;0.82;;;24.50;73.50;;;;;;4889707;28;87434;-72
2022/06/24 14:21:24;;;;;;;4.07;1.25;;;24.60;72.90;;;;;;4892994;28;87646;-74
2022/06/24 14:26:33;;;;;;;3.17;0.85;;;24.40;72.20;;;;;;4894396;28;87147;-72
2022/06/24 14:28:59;;;;;;;3.72;1.25;;;24.00;73.20;;;;;;4894972;28;87605;-74
2022/06/24 14:31:25;;;;;;;3.15;0.82;;;23.60;74.60;;;;;;4886742;28;88198;-74
2022/06/24 14:33:50;;;;;;;4.25;0.88;;;23.30;76.40;;;;;;4887136;28;88351;-72
2022/06/24 14:36:16;;;;;;;3.58;1.00;;;23.20;76.90;;;;;;4891032;28;87392;-72
2022/06/24 14:41:26;;;;;;;4.82;1.48;;;23.10;75.10;;;;;;4896559;28;86798;-72
2022/06/24 14:43:52;;;;;;;3.05;1.02;;;22.70;77.30;;;;;;4895570;28;87298;-73
2022/06/24 14:46:18;;;;;;;4.55;0.75;;;22.60;77.10;;;;;;4886472;28;87087;-73
2022/06/24 14:48:44;;;;;;;2.75;0.40;;;22.70;77.50;;;;;;4888072;28;85999;-75
2022/06/24 14:51:10;;;;;;;4.68;1.27;;;22.60;78.50;;;;;;4887127;28;87058;-73
2022/06/24 14:53:36;;;;;;;5.70;1.00;;;22.50;79.40;;;;;;4893558;28;87498;-73
2022/06/24 14:56:02;;;;;;;1.17;0.52;;;22.20;79.00;;;;;;4891979;28;87790;-74
2022/06/24 14:58:29;;;;;;;3.08;0.55;;;22.10;76.90;;;;;;4890355;28;87117;-73
2022/06/24 15:00:55;;;;;;;1.65;0.50;;;21.80;78.20;;;;;;4896363;28;87638;-73
2022/06/24 15:03:20;;;;;;;5.75;0.60;;;21.50;79.00;;;;;;4892981;28;88024;-72
2022/06/24 15:05:46;;;;;;;4.03;0.50;;;21.30;79.50;;;;;;4896700;28;86950;-72
2022/06/24 15:08:12;;;;;;;2.88;0.35;;;21.20;80.40;;;;;;4895704;28;86894;-72
2022/06/24 15:10:38;;;;;;;4.50;0.22;;;21.00;82.20;;;;;;4895873;28;87779;-73
2022/06/24 15:13:04;;;;;;;3.45;0.70;;;20.50;84.90;;;;;;4895779;28;87430;-72
2022/06/24 15:15:29;;;;;;;1.83;0.35;;;20.30;86.70;;;;;;4895965;28;87083;-71
2022/06/24 15:17:55;;;;;;;1.42;0.30;;;19.90;87.30;;;;;;4896250;28;87162;-72
2022/06/24 15:20:21;;;;;;;1.73;0.20;;;19.40;89.40;;;;;;4895194;28;89143;-71
2022/06/24 15:22:46;;;;;;;1.60;0.40;;;19.20;90.90;;;;;;4895177;28;88378;-73
2022/06/24 15:25:12;;;;;;;1.60;0.30;;;19.10;91.40;;;;;;4895998;28;87011;-72
2022/06/24 15:27:39;;;;;;;1.02;0.20;;;18.90;92.30;;;;;;4891442;28;86995;-72
2022/06/24 15:30:05;;;;;;;2.85;0.25;;;18.70;93.60;;;;;;4894330;28;89390;-72
2022/06/24 15:32:31;;;;;;;0.80;0.20;;;18.40;94.50;;;;;;4898126;28;88544;-72
2022/06/24 15:34:57;;;;;;;1.65;0.28;;;18.40;95.10;;;;;;4901000;28;86920;-71
2022/06/24 15:37:23;;;;;;;3.17;0.30;;;18.40;95.30;;;;;;4899594;28;86115;-73
2022/06/24 15:39:49;;;;;;;0.52;0.20;;;18.50;95.30;;;;;;4899041;28;87688;-72
2022/06/24 15:42:15;;;;;;;0.70;0.20;;;18.40;95.30;;;;;;4897990;28;87873;-71
2022/06/24 15:44:40;;;;;;;0.95;0.30;;;18.50;95.30;;;;;;4898489;28;87936;-73
2022/06/24 15:47:06;;;;;;;0.93;0.32;;;18.60;94.50;;;;;;4898046;28;87153;-73
2022/06/24 15:49:32;;;;;;;0.82;0.20;;;18.40;94.90;;;;;;4896776;28;88140;-72